Speedwell TN Speed Test Log

Averages  Max Speed    
1 to 25 of 253** for City Speedwell TN
Time
  
  Speed   Provider Size    User ConnectID   TestID  
8/6/19 7:13:22 pm 43.77 Mbps 5.47 MB/sHughes 84.3 MB68002701119129 sClseBw8e 
8/6/19 7:09:41 pm 42.47 Mbps 5.31 MB/sHughes 84.3 MB68002701119129 twb~hq_4m 
8/6/19 2:54:29 pm 2.17 Mbps 271 kB/sHughes 3 MB58199441827642 Wfe03vpuI 
8/6/19 2:53:24 pm 24.16 Mbps 3.02 MB/sHughes 25 MB58199441827642 d_lZ7YMfI 
8/6/19 2:52:49 pm 14.45 Mbps 1.81 MB/sHughes 25 MB58199441827642 a3kd_IkkS 
8/6/19 2:51:44 pm 7.52 Mbps 940 kB/sHughes 25 MB58199441827642 B6K6etxjn 
8/4/19 1:44:52 pm 43.27 Mbps 5.41 MB/sHughes 25 MB71991932428433 1EHjS7dhc 
8/3/19 1:56:50 pm 38.68 Mbps 4.84 MB/sHughes 74.4 MB4816240992403 JYufAQ_of 
8/2/19 10:50:18 pm 5.73 Mbps 716 kB/sHughes 12 MB10505562152928 K-4d_2PQf 
8/2/19 10:49:52 pm 11.72 Mbps 1.46 MB/sHughes 12 MB10505562152928 SmnxSg2JB 
8/2/19 10:49:21 pm 8.96 Mbps 1.12 MB/sHughes 12 MB10505562152928 ecHUCP1fA 
8/2/19 10:48:53 pm 9.14 Mbps 1.14 MB/sHughes 4.9 MB10505562152928 V~KTMt8pC 
8/2/19 10:44:30 pm 491 kbps 61 kB/sHughes 1 MB10505562152928 EiY7Tt69C 
8/2/19 10:43:12 pm 1.25 Mbps 156 kB/sHughes 3 MB10505562152928 6eNBGL~45 
8/2/19 7:50:54 pm 1.31 Mbps 164 kB/sHughes 1.1 MB81937332241397 U43rrGkCf 
8/2/19 7:50:18 pm 28.91 Mbps 3.61 MB/sHughes 87.2 MB81937332241397 4H8pCx-UD 
8/2/19 7:48:49 pm 28.22 Mbps 3.53 MB/sHughes 80.1 MB81937332241397 0ZOl1szOx 
8/2/19 3:58:25 pm 1.42 Mbps 178 kB/sHughes 1.8 MB70736233825690 -rmYcFyMg 
8/2/19 3:57:56 pm 11.68 Mbps 1.46 MB/sHughes 79.4 MB70736233825690 Bpm-a4Dm9 
8/2/19 3:44:20 pm 1.21 Mbps 152 kB/sHughes 912 kB70736233825690 ~YZYnuCoU 
8/2/19 3:44:03 pm 8.51 Mbps 1.06 MB/sHughes 91.9 MB70736233825690 JhdzfBjJ4 
7/31/19 4:36:12 pm 1.3 Mbps 162 kB/sHughes 1.1 MB89397715767933 XPRvF9TPB 
7/31/19 4:35:57 pm 1.2 Mbps 150 kB/sHughes 1.1 MB89397715767933 -Q6QZQZJ_ 
7/31/19 4:35:23 pm 49.47 Mbps 6.18 MB/sHughes 73.8 MB89397715767933 F_6pFYPpl 
7/31/19 4:34:59 pm 47.24 Mbps 5.9 MB/sHughes 73.8 MB89397715767933 y0oAw_ZfZ 
  
** Partial Results: The most recent results have been displayed. Results over 50 Mbps are highlighted.
Calculated from graphed results above not entire query.
Displaying Internet Speed Test results for City Speedwell TN

Minimum

Min 0.49 Mbps : 1.2 Mbps

Average

Avg 23.58 Mbps : 1.41 Mbps

Maximum

Max 49.47 Mbps : 2.17 Mbps

Minimum

Min: 0.49 Mbps : 1.2 Mbps |

Average

Avg: 23.58 Mbps : 1.41 Mbps |

Maximum

Max: 49.47 Mbps : 2.17 Mbps